createdAt,value
2022-10-05T03:59:16.057Z,1010.04
2022-10-05T04:00:16.015Z,1010.01
2022-10-05T04:01:16.121Z,1010.07
2022-10-05T04:02:16.089Z,1010.07
2022-10-05T04:03:16.011Z,1010.08
2022-10-05T04:04:16.021Z,1010.06
2022-10-05T04:05:16.012Z,1010.10
2022-10-05T04:06:16.027Z,1010.11
2022-10-05T04:07:16.012Z,1010.12
2022-10-05T04:08:16.014Z,1010.12
2022-10-05T04:09:15.372Z,1010.09
2022-10-05T04:10:16.015Z,1010.05
2022-10-05T04:11:15.542Z,1010.03
2022-10-05T04:12:16.035Z,1010.06
2022-10-05T04:13:15.567Z,1010.00
2022-10-05T04:14:16.038Z,1010.01
2022-10-05T04:15:18.846Z,1010.01
2022-10-05T04:16:16.139Z,1010.04
2022-10-05T04:17:16.040Z,1010.05
2022-10-05T04:18:16.025Z,1010.01
2022-10-05T04:19:16.032Z,1010.04
2022-10-05T04:20:16.076Z,1010.05
2022-10-05T04:21:20.092Z,1010.06
2022-10-05T04:22:16.038Z,1010.02
2022-10-05T04:23:16.025Z,1010.03
2022-10-05T04:24:14.310Z,1010.05
2022-10-05T04:25:16.031Z,1010.05
2022-10-05T04:26:15.543Z,1010.11
2022-10-05T04:27:16.031Z,1010.17
2022-10-05T04:28:16.133Z,1010.13
2022-10-05T04:29:16.057Z,1010.14
2022-10-05T04:30:14.303Z,1010.13
2022-10-05T04:31:14.349Z,1010.14
2022-10-05T04:32:14.293Z,1010.16
2022-10-05T04:33:16.539Z,1010.14
2022-10-05T04:34:14.285Z,1010.15
2022-10-05T04:35:14.282Z,1010.14
2022-10-05T04:36:14.277Z,1010.10
2022-10-05T04:37:16.051Z,1010.10
2022-10-05T04:38:14.270Z,1010.10
2022-10-05T04:39:14.275Z,1010.08
2022-10-05T04:40:15.554Z,1010.14
2022-10-05T04:41:14.265Z,1010.08
2022-10-05T04:42:16.063Z,1010.07
2022-10-05T04:43:15.560Z,1010.07
2022-10-05T04:44:15.554Z,1010.02
2022-10-05T04:45:14.247Z,1010.04
2022-10-05T04:46:16.094Z,1010.03
2022-10-05T04:47:16.055Z,1010.12
2022-10-05T04:48:16.056Z,1010.12
2022-10-05T04:49:16.062Z,1010.10
2022-10-05T04:50:16.053Z,1010.10
2022-10-05T04:51:16.050Z,1010.05
2022-10-05T04:52:16.050Z,1010.01
2022-10-05T04:53:16.067Z,1010.04
2022-10-05T04:54:16.067Z,1010.05
2022-10-05T04:55:16.050Z,1010.05
2022-10-05T04:56:16.053Z,1010.01
2022-10-05T04:57:16.053Z,1010.02
2022-10-05T04:58:16.057Z,1009.92
2022-10-05T04:59:16.075Z,1009.94
2022-10-05T05:00:16.053Z,1009.96
2022-10-05T05:01:16.132Z,1009.94
2022-10-05T05:02:16.079Z,1009.93
2022-10-05T05:03:16.087Z,1009.94
2022-10-05T05:04:16.171Z,1009.88
2022-10-05T05:05:16.072Z,1009.87
2022-10-05T05:06:17.689Z,1009.82
2022-10-05T05:07:16.067Z,1009.83
2022-10-05T05:08:16.065Z,1009.82
2022-10-05T05:09:16.076Z,1009.83
2022-10-05T05:10:16.065Z,1009.82
2022-10-05T05:11:18.143Z,1009.81
2022-10-05T05:12:16.082Z,1009.76
2022-10-05T05:13:14.162Z,1009.79
2022-10-05T05:14:14.164Z,1009.77
2022-10-05T05:15:14.161Z,1009.78
2022-10-05T05:16:14.216Z,1009.79
2022-10-05T05:17:15.088Z,1009.83
2022-10-05T05:18:14.149Z,1009.85
2022-10-05T05:19:16.099Z,1009.86
2022-10-05T05:20:14.146Z,1009.87
2022-10-05T05:21:16.078Z,1009.84
2022-10-05T05:22:16.096Z,1009.83
2022-10-05T05:23:15.137Z,1009.83
2022-10-05T05:24:15.136Z,1009.79
2022-10-05T05:25:16.079Z,1009.75
2022-10-05T05:26:15.127Z,1009.78
2022-10-05T05:27:16.092Z,1009.75
2022-10-05T05:28:15.311Z,1009.78
2022-10-05T05:29:16.104Z,1009.71
2022-10-05T05:30:16.094Z,1009.74
2022-10-05T05:31:16.159Z,1009.70
2022-10-05T05:32:14.110Z,1009.68
2022-10-05T05:33:16.082Z,1009.70
2022-10-05T05:34:16.103Z,1009.75
2022-10-05T05:35:18.040Z,1009.74
2022-10-05T05:36:17.378Z,1009.81
2022-10-05T05:37:16.125Z,1009.81
2022-10-05T05:38:14.095Z,1009.82
2022-10-05T05:39:15.614Z,1009.83
2022-10-05T05:40:15.610Z,1009.88
2022-10-05T05:41:15.080Z,1009.86
2022-10-05T05:42:15.688Z,1009.88
2022-10-05T05:43:14.078Z,1009.90
2022-10-05T05:44:14.076Z,1009.93
2022-10-05T05:45:15.081Z,1009.93
2022-10-05T05:46:15.651Z,1009.94
2022-10-05T05:47:15.670Z,1009.92
2022-10-05T05:48:22.605Z,1009.89
2022-10-05T05:49:15.999Z,1009.89
2022-10-05T05:50:14.133Z,1009.88
2022-10-05T05:51:14.133Z,1009.87
2022-10-05T05:52:15.867Z,1009.85
2022-10-05T05:53:14.109Z,1009.81
2022-10-05T05:54:15.628Z,1009.81
2022-10-05T05:55:14.813Z,1009.79
2022-10-05T05:56:15.451Z,1009.80
2022-10-05T05:57:15.625Z,1009.76
2022-10-05T05:58:29.794Z,1009.71
2022-10-05T05:59:20.844Z,1009.74
2022-10-05T06:00:14.337Z,1009.79
2022-10-05T06:01:31.751Z,1009.87
2022-10-05T06:02:16.772Z,1009.87
2022-10-05T06:03:14.148Z,1009.88
2022-10-05T06:04:15.623Z,1009.87
2022-10-05T06:05:15.629Z,1009.87
2022-10-05T06:06:15.632Z,1009.83
2022-10-05T06:07:15.622Z,1009.86
2022-10-05T06:08:15.648Z,1009.86
2022-10-05T06:09:15.614Z,1009.86
2022-10-05T06:10:15.627Z,1009.84
2022-10-05T06:11:15.645Z,1009.78
2022-10-05T06:12:15.673Z,1009.78
2022-10-05T06:13:15.627Z,1009.78
2022-10-05T06:14:15.620Z,1009.81
2022-10-05T06:15:15.619Z,1009.79
2022-10-05T06:16:15.707Z,1009.78
2022-10-05T06:17:13.981Z,1009.82
2022-10-05T06:18:13.981Z,1009.84
2022-10-05T06:19:13.983Z,1009.85
2022-10-05T06:20:15.651Z,1009.86
2022-10-05T06:21:15.644Z,1009.87
2022-10-05T06:22:15.642Z,1009.82
2022-10-05T06:23:15.622Z,1009.84
2022-10-05T06:24:15.624Z,1009.88
2022-10-05T06:25:15.673Z,1009.82
2022-10-05T06:26:15.640Z,1009.85
2022-10-05T06:27:15.673Z,1009.84
2022-10-05T06:28:15.695Z,1009.84
2022-10-05T06:29:15.661Z,1009.85
2022-10-05T06:30:15.700Z,1009.85
2022-10-05T06:31:15.706Z,1009.81
2022-10-05T06:32:15.659Z,1009.77
2022-10-05T06:33:15.632Z,1009.81
2022-10-05T06:34:15.654Z,1009.74
2022-10-05T06:35:15.685Z,1009.76
2022-10-05T06:36:15.642Z,1009.79
2022-10-05T06:37:13.967Z,1009.78
2022-10-05T06:38:13.933Z,1009.80
2022-10-05T06:39:15.654Z,1009.82
2022-10-05T06:40:13.950Z,1009.82
2022-10-05T06:41:13.984Z,1009.79
2022-10-05T06:42:13.916Z,1009.81
2022-10-05T06:43:13.914Z,1009.74
2022-10-05T06:44:15.656Z,1009.78
2022-10-05T06:45:13.913Z,1009.77
2022-10-05T06:46:15.749Z,1009.75
2022-10-05T06:47:13.903Z,1009.78
2022-10-05T06:48:15.667Z,1009.75
2022-10-05T06:49:15.670Z,1009.71
2022-10-05T06:50:13.925Z,1009.76
2022-10-05T06:51:13.961Z,1009.79
2022-10-05T06:52:15.646Z,1009.74
2022-10-05T06:53:13.882Z,1009.78
2022-10-05T06:54:15.657Z,1009.79
2022-10-05T06:55:22.650Z,1009.78
2022-10-05T06:56:14.060Z,1009.84
2022-10-05T06:57:15.652Z,1009.81
2022-10-05T06:58:20.810Z,1009.81
2022-10-05T06:59:13.871Z,1009.83
2022-10-05T07:00:16.039Z,1009.82
2022-10-05T07:01:13.928Z,1009.78
2022-10-05T07:02:13.875Z,1009.84
2022-10-05T07:03:15.664Z,1009.80
2022-10-05T07:04:17.130Z,1009.79
2022-10-05T07:05:13.945Z,1009.76
2022-10-05T07:06:13.855Z,1009.80
2022-10-05T07:07:15.685Z,1009.83
2022-10-05T07:08:17.724Z,1009.84
2022-10-05T07:09:19.241Z,1009.80
2022-10-05T07:10:15.810Z,1009.81
2022-10-05T07:11:15.697Z,1009.82
2022-10-05T07:12:15.688Z,1009.85
2022-10-05T07:13:13.838Z,1009.83
2022-10-05T07:14:13.876Z,1009.84
2022-10-05T07:15:15.681Z,1009.82
2022-10-05T07:16:16.605Z,1009.83
2022-10-05T07:17:15.789Z,1009.90
2022-10-05T07:19:13.858Z,1009.76
2022-10-05T07:20:14.092Z,1009.82
2022-10-05T07:21:13.840Z,1009.84
2022-10-05T07:22:15.691Z,1009.82
2022-10-05T07:23:15.473Z,1009.80
2022-10-05T07:24:13.813Z,1009.73
2022-10-05T07:25:15.701Z,1009.80
2022-10-05T07:26:13.820Z,1009.83
2022-10-05T07:27:15.698Z,1009.82
2022-10-05T07:28:22.759Z,1009.78
2022-10-05T07:30:13.822Z,1009.81
2022-10-05T07:31:19.369Z,1009.81
2022-10-05T07:32:30.183Z,1009.82
2022-10-05T07:33:15.952Z,1009.86
2022-10-05T07:34:13.800Z,1009.87
2022-10-05T07:35:13.793Z,1009.87
2022-10-05T07:36:13.787Z,1009.82
2022-10-05T07:37:13.801Z,1009.92
2022-10-05T07:39:13.780Z,1009.95
2022-10-05T07:40:15.754Z,1009.97
2022-10-05T07:41:13.789Z,1009.94
2022-10-05T07:42:13.771Z,1009.96
2022-10-05T07:43:13.819Z,1009.91
2022-10-05T07:44:13.786Z,1009.96
2022-10-05T07:45:17.840Z,1009.96
2022-10-05T07:46:14.009Z,1009.95
2022-10-05T07:47:13.828Z,1009.93
2022-10-05T07:48:13.769Z,1009.93
2022-10-05T07:49:15.746Z,1009.94
2022-10-05T07:50:16.795Z,1009.97
2022-10-05T07:51:15.263Z,1009.97
2022-10-05T07:52:13.752Z,1009.97
2022-10-05T07:53:23.140Z,1010.02
2022-10-05T07:54:15.726Z,1010.03
2022-10-05T07:55:13.785Z,1010.00
2022-10-05T07:56:13.797Z,1010.01
2022-10-05T07:57:15.766Z,1010.07
2022-10-05T07:58:13.777Z,1010.06
2022-10-05T07:59:15.772Z,1010.11
2022-10-05T08:00:13.797Z,1010.12
2022-10-05T08:01:15.741Z,1010.12
2022-10-05T08:02:15.903Z,1010.17
2022-10-05T08:03:14.802Z,1010.14
2022-10-05T08:04:15.713Z,1010.15
2022-10-05T08:05:15.247Z,1010.16
2022-10-05T08:06:14.735Z,1010.15
2022-10-05T08:07:15.325Z,1010.11
2022-10-05T08:08:16.685Z,1010.19
2022-10-05T08:09:13.734Z,1010.15
2022-10-05T08:10:16.886Z,1010.12
2022-10-05T08:11:15.261Z,1010.12
2022-10-05T08:12:13.723Z,1010.12
2022-10-05T08:13:13.742Z,1010.09
2022-10-05T08:14:14.746Z,1010.08
2022-10-05T08:15:13.719Z,1010.05
2022-10-05T08:16:13.750Z,1010.06
2022-10-05T08:17:15.234Z,1010.13
2022-10-05T08:18:13.708Z,1010.09
2022-10-05T08:19:13.702Z,1010.12
2022-10-05T08:20:13.734Z,1010.19
2022-10-05T08:21:15.239Z,1010.13
2022-10-05T08:22:13.716Z,1010.15
2022-10-05T08:23:13.694Z,1010.09
2022-10-05T08:24:15.259Z,1010.11
2022-10-05T08:25:13.685Z,1010.20
2022-10-05T08:26:15.235Z,1010.18
2022-10-05T08:27:13.694Z,1010.12
2022-10-05T08:28:15.310Z,1010.18
2022-10-05T08:29:15.256Z,1010.15
2022-10-05T08:30:13.716Z,1010.12
2022-10-05T08:31:13.853Z,1010.17
2022-10-05T08:32:13.677Z,1010.16
2022-10-05T08:33:15.271Z,1010.17
2022-10-05T08:34:15.253Z,1010.13
2022-10-05T08:35:15.238Z,1010.13
2022-10-05T08:36:15.261Z,1010.13
2022-10-05T08:37:15.273Z,1010.09
2022-10-05T08:38:15.252Z,1010.14
2022-10-05T08:39:15.248Z,1010.17
2022-10-05T08:40:15.285Z,1010.08
2022-10-05T08:41:15.271Z,1010.16
2022-10-05T08:42:16.313Z,1010.15
2022-10-05T08:43:15.269Z,1010.09
2022-10-05T08:44:14.646Z,1010.10
2022-10-05T08:45:14.681Z,1010.08
2022-10-05T08:46:13.744Z,1010.07
2022-10-05T08:47:13.731Z,1010.06
2022-10-05T08:48:15.265Z,1010.14
2022-10-05T08:49:13.640Z,1010.12
2022-10-05T08:50:13.657Z,1010.12
2022-10-05T08:51:14.786Z,1010.08
2022-10-05T08:52:13.642Z,1010.12
2022-10-05T08:53:15.266Z,1010.08
2022-10-05T08:54:13.635Z,1010.07
2022-10-05T08:55:13.656Z,1010.04
2022-10-05T08:56:19.117Z,1010.07
2022-10-05T08:57:15.346Z,1010.09
2022-10-05T08:58:13.621Z,1010.10
2022-10-05T08:59:15.268Z,1010.07
2022-10-05T09:00:15.275Z,1010.14
2022-10-05T09:01:15.415Z,1010.12
2022-10-05T09:02:15.377Z,1010.05
2022-10-05T09:03:15.301Z,1010.13
2022-10-05T09:04:15.263Z,1010.10
2022-10-05T09:05:15.303Z,1010.00
2022-10-05T09:06:15.289Z,1010.03
2022-10-05T09:07:15.284Z,1010.07
2022-10-05T09:08:15.314Z,1010.05
2022-10-05T09:09:15.264Z,1010.05
2022-10-05T09:10:15.289Z,1010.08
2022-10-05T09:11:15.270Z,1010.12
2022-10-05T09:12:15.297Z,1010.06
2022-10-05T09:13:15.809Z,1010.09
2022-10-05T09:14:19.473Z,1010.11
2022-10-05T09:15:25.474Z,1010.10
2022-10-05T09:16:15.371Z,1010.12
2022-10-05T09:17:14.620Z,1010.09
2022-10-05T09:18:15.297Z,1010.09
2022-10-05T09:19:13.574Z,1010.02
2022-10-05T09:20:13.661Z,1010.03
2022-10-05T09:21:13.569Z,1010.10
2022-10-05T09:22:15.298Z,1009.98
2022-10-05T09:23:15.766Z,1010.02
2022-10-05T09:24:15.115Z,1009.95
2022-10-05T09:25:13.719Z,1010.00
2022-10-05T09:26:15.758Z,1010.02
2022-10-05T09:27:13.955Z,1009.97
2022-10-05T09:28:14.869Z,1009.94
2022-10-05T09:29:16.050Z,1009.87
2022-10-05T09:30:13.848Z,1009.99
2022-10-05T09:31:13.603Z,1009.89
2022-10-05T09:32:35.653Z,1009.83
2022-10-05T09:34:41.743Z,1009.90
2022-10-05T09:35:17.171Z,1009.87
2022-10-05T09:36:13.594Z,1009.85
2022-10-05T09:37:16.395Z,1009.87
2022-10-05T09:38:14.494Z,1009.90
2022-10-05T09:39:13.611Z,1009.84
2022-10-05T09:40:15.420Z,1009.85
2022-10-05T09:41:13.535Z,1009.87
2022-10-05T09:42:13.530Z,1009.85
2022-10-05T09:43:15.331Z,1009.80
2022-10-05T09:44:13.554Z,1009.85
2022-10-05T09:45:16.599Z,1009.78
2022-10-05T09:46:19.955Z,1009.79
2022-10-05T09:47:13.640Z,1009.74
2022-10-05T09:48:13.582Z,1009.71
2022-10-05T09:49:15.318Z,1009.72
2022-10-05T09:50:13.534Z,1009.74
2022-10-05T09:51:13.513Z,1009.75
2022-10-05T09:52:18.610Z,1009.77
2022-10-05T09:53:16.320Z,1009.71
2022-10-05T09:54:13.516Z,1009.72
2022-10-05T09:55:14.339Z,1009.71
2022-10-05T09:56:15.361Z,1009.70
2022-10-05T09:57:13.543Z,1009.69
2022-10-05T09:58:13.501Z,1009.71
2022-10-05T09:59:13.500Z,1009.73
2022-10-05T10:00:13.501Z,1009.67
2022-10-05T10:01:32.606Z,1009.74
2022-10-05T10:02:13.665Z,1009.71
2022-10-05T10:13:20.304Z,1009.58
2022-10-05T10:14:18.740Z,1009.54
2022-10-05T10:15:18.700Z,1009.54
2022-10-05T10:16:20.337Z,1009.53
2022-10-05T10:17:18.700Z,1009.52
2022-10-05T10:18:18.690Z,1009.49
2022-10-05T10:19:18.687Z,1009.54
2022-10-05T10:20:18.688Z,1009.49
2022-10-05T10:21:20.284Z,1009.47
2022-10-05T10:22:18.677Z,1009.50
2022-10-05T10:23:18.678Z,1009.44
2022-10-05T10:25:20.310Z,1009.42
2022-10-05T10:26:18.673Z,1009.43
2022-10-05T10:27:18.706Z,1009.35
2022-10-05T10:28:18.700Z,1009.43
2022-10-05T10:29:20.474Z,1009.44
2022-10-05T10:30:20.295Z,1009.44
2022-10-05T10:31:21.404Z,1009.38
2022-10-05T10:32:18.673Z,1009.40
2022-10-05T10:33:18.673Z,1009.40
2022-10-05T10:34:18.675Z,1009.39
2022-10-05T10:35:20.429Z,1009.36
2022-10-05T10:36:19.680Z,1009.36
2022-10-05T10:37:18.655Z,1009.37
2022-10-05T10:38:18.667Z,1009.34
2022-10-05T10:39:20.433Z,1009.29
2022-10-05T10:40:20.308Z,1009.31
2022-10-05T10:41:18.658Z,1009.27
2022-10-05T10:42:22.555Z,1009.20
2022-10-05T10:43:20.340Z,1009.26
2022-10-05T10:44:18.759Z,1009.26
2022-10-05T10:45:20.328Z,1009.19
2022-10-05T10:46:18.734Z,1009.21
2022-10-05T10:47:20.309Z,1009.22
2022-10-05T10:48:18.652Z,1009.20
2022-10-05T10:49:20.310Z,1009.16
2022-10-05T10:50:20.310Z,1009.17
2022-10-05T10:51:18.665Z,1009.17
2022-10-05T10:52:18.659Z,1009.16
2022-10-05T10:53:20.316Z,1009.09
2022-10-05T10:54:18.661Z,1009.10
2022-10-05T10:55:18.655Z,1009.13
2022-10-05T10:56:18.673Z,1009.14
2022-10-05T10:57:20.306Z,1009.11
2022-10-05T10:58:20.491Z,1009.07
2022-10-05T10:59:20.311Z,1009.13
2022-10-05T11:00:20.311Z,1009.07
2022-10-05T11:01:21.596Z,1009.14
2022-10-05T11:02:18.747Z,1009.02
2022-10-05T11:03:20.328Z,1008.94
2022-10-05T11:04:20.325Z,1008.99
2022-10-05T11:05:20.314Z,1008.99
2022-10-05T11:06:20.335Z,1009.01
2022-10-05T11:07:20.350Z,1009.02
2022-10-05T11:08:20.319Z,1008.99
2022-10-05T11:09:20.320Z,1008.97
2022-10-05T11:10:20.317Z,1009.03
2022-10-05T11:11:20.321Z,1008.99
2022-10-05T11:12:20.335Z,1008.93
2022-10-05T11:13:20.392Z,1008.93
2022-10-05T11:14:18.715Z,1008.93
2022-10-05T11:15:20.461Z,1008.97
2022-10-05T11:16:20.420Z,1008.93
2022-10-05T11:17:20.056Z,1008.96
2022-10-05T11:18:18.708Z,1008.94
2022-10-05T11:19:18.888Z,1008.89
2022-10-05T11:20:18.769Z,1008.93
2022-10-05T11:21:19.981Z,1008.92
2022-10-05T11:22:21.295Z,1008.83
2022-10-05T11:23:19.606Z,1008.91
2022-10-05T11:24:19.724Z,1008.87
2022-10-05T11:25:20.882Z,1008.84
2022-10-05T11:26:21.045Z,1008.76
2022-10-05T11:27:18.864Z,1008.75
2022-10-05T11:28:18.943Z,1008.78
2022-10-05T11:29:20.350Z,1008.83
2022-10-05T11:30:20.352Z,1008.83
2022-10-05T11:31:20.527Z,1008.77
2022-10-05T11:32:20.391Z,1008.75
2022-10-05T11:33:20.398Z,1008.70
2022-10-05T11:34:20.358Z,1008.71
2022-10-05T11:35:20.346Z,1008.62
2022-10-05T11:36:20.363Z,1008.63
2022-10-05T11:37:20.348Z,1008.64
2022-10-05T11:38:18.786Z,1008.63
2022-10-05T11:39:20.348Z,1008.60
2022-10-05T11:40:18.760Z,1008.65
2022-10-05T11:41:20.375Z,1008.60
2022-10-05T11:42:20.354Z,1008.69
2022-10-05T11:43:20.371Z,1008.58
2022-10-05T11:44:20.435Z,1008.61
2022-10-05T11:45:20.372Z,1008.56
2022-10-05T11:46:20.461Z,1008.53
2022-10-05T11:47:20.361Z,1008.50
2022-10-05T11:48:20.047Z,1008.48
2022-10-05T11:49:20.456Z,1008.52
2022-10-05T11:50:20.366Z,1008.47
2022-10-05T11:51:23.977Z,1008.47
2022-10-05T11:52:20.367Z,1008.46
2022-10-05T11:53:20.377Z,1008.44
2022-10-05T11:54:18.814Z,1008.44
2022-10-05T11:55:18.822Z,1008.47
2022-10-05T11:56:18.856Z,1008.33
2022-10-05T11:57:18.827Z,1008.42
2022-10-05T11:58:21.440Z,1008.41
2022-10-05T11:59:20.444Z,1008.46
2022-10-05T12:00:18.901Z,1008.36
2022-10-05T12:01:18.877Z,1008.39
2022-10-05T12:02:18.848Z,1008.40
2022-10-05T12:03:20.572Z,1008.37
2022-10-05T12:04:18.871Z,1008.28
2022-10-05T12:05:20.416Z,1008.29
2022-10-05T12:06:18.883Z,1008.33
2022-10-05T12:07:20.433Z,1008.34
2022-10-05T12:08:18.871Z,1008.31
2022-10-05T12:09:20.411Z,1008.34
2022-10-05T12:10:20.400Z,1008.25
2022-10-05T12:11:18.885Z,1008.23
2022-10-05T12:12:20.404Z,1008.22
2022-10-05T12:13:20.412Z,1008.20
2022-10-05T12:14:20.392Z,1008.20
2022-10-05T12:15:20.408Z,1008.21
2022-10-05T12:16:20.960Z,1008.19
2022-10-05T12:17:20.895Z,1008.15
2022-10-05T12:18:20.926Z,1008.10
2022-10-05T12:19:20.898Z,1008.10
2022-10-05T12:20:20.897Z,1008.21
2022-10-05T12:21:20.911Z,1008.12
2022-10-05T12:22:20.912Z,1008.12
2022-10-05T12:23:18.941Z,1008.10
2022-10-05T12:24:21.266Z,1008.12
2022-10-05T12:25:20.937Z,1008.10
2022-10-05T12:26:18.957Z,1008.10
2022-10-05T12:27:18.953Z,1008.04
2022-10-05T12:28:20.953Z,1008.08
2022-10-05T12:29:18.965Z,1008.05
2022-10-05T12:30:18.984Z,1008.03
2022-10-05T12:31:20.933Z,1008.04
2022-10-05T12:32:20.934Z,1008.02
2022-10-05T12:33:20.919Z,1008.03
2022-10-05T12:34:20.915Z,1008.03
2022-10-05T12:35:36.526Z,1007.91
2022-10-05T12:36:20.953Z,1007.90
2022-10-05T12:37:20.930Z,1008.00
2022-10-05T12:38:20.956Z,1007.93
2022-10-05T12:39:20.922Z,1007.91
2022-10-05T12:40:20.941Z,1007.89
2022-10-05T12:41:20.944Z,1007.93
2022-10-05T12:42:20.924Z,1007.79
2022-10-05T12:43:20.941Z,1007.75
2022-10-05T12:44:20.944Z,1007.76
2022-10-05T12:45:19.054Z,1007.66
2022-10-05T12:46:19.108Z,1007.72
2022-10-05T12:47:19.059Z,1007.68
2022-10-05T12:48:19.104Z,1007.69
2022-10-05T12:49:20.947Z,1007.65
2022-10-05T12:50:19.064Z,1007.71
2022-10-05T12:51:19.074Z,1007.65
2022-10-05T12:52:19.079Z,1007.63
2022-10-05T12:53:19.106Z,1007.73
2022-10-05T12:54:19.094Z,1007.70
2022-10-05T12:55:20.952Z,1007.63
2022-10-05T12:56:19.111Z,1007.59
2022-10-05T12:57:19.135Z,1007.62
2022-10-05T12:58:19.117Z,1007.68
2022-10-05T12:59:20.953Z,1007.68
2022-10-05T13:00:22.880Z,1007.57
2022-10-05T13:01:19.170Z,1007.65
2022-10-05T13:02:19.211Z,1007.65
2022-10-05T13:03:20.976Z,1007.68
2022-10-05T13:04:20.956Z,1007.65
2022-10-05T13:05:20.961Z,1007.71
2022-10-05T13:06:20.950Z,1007.64
2022-10-05T13:07:20.966Z,1007.67
2022-10-05T13:08:21.003Z,1007.65
2022-10-05T13:09:20.966Z,1007.81
2022-10-05T13:10:20.963Z,1007.69
2022-10-05T13:11:20.956Z,1007.64
2022-10-05T13:12:20.959Z,1007.60
2022-10-05T13:13:20.978Z,1007.62
2022-10-05T13:14:20.961Z,1007.67
2022-10-05T13:15:20.963Z,1007.61
2022-10-05T13:16:19.255Z,1007.57
2022-10-05T13:17:20.965Z,1007.65
2022-10-05T13:18:20.995Z,1007.66
2022-10-05T13:19:20.972Z,1007.65
2022-10-05T13:20:21.511Z,1007.70
2022-10-05T13:21:20.975Z,1007.58
2022-10-05T13:22:20.986Z,1007.51
2022-10-05T13:23:20.999Z,1007.62
2022-10-05T13:24:21.005Z,1007.56
2022-10-05T13:25:20.987Z,1007.59
2022-10-05T13:26:20.979Z,1007.59
2022-10-05T13:27:19.326Z,1007.55
2022-10-05T13:28:21.060Z,1007.61
2022-10-05T13:29:19.338Z,1007.62
2022-10-05T13:30:19.390Z,1007.67
2022-10-05T13:31:19.418Z,1007.62
2022-10-05T13:32:20.998Z,1007.57
2022-10-05T13:33:19.372Z,1007.66
2022-10-05T13:34:21.001Z,1007.63
2022-10-05T13:35:19.395Z,1007.63
2022-10-05T13:36:19.394Z,1007.58
2022-10-05T13:37:19.404Z,1007.62
2022-10-05T13:38:21.016Z,1007.59
2022-10-05T13:39:19.418Z,1007.56
2022-10-05T13:40:21.017Z,1007.53
2022-10-05T13:41:19.440Z,1007.52
2022-10-05T13:42:20.997Z,1007.47
2022-10-05T13:43:20.448Z,1007.55
2022-10-05T13:44:20.541Z,1007.56
2022-10-05T13:45:19.473Z,1007.55
2022-10-05T13:46:21.120Z,1007.50
2022-10-05T13:47:19.483Z,1007.48
2022-10-05T13:48:19.492Z,1007.58
2022-10-05T13:49:21.021Z,1007.55
2022-10-05T13:50:19.519Z,1007.57
2022-10-05T13:51:21.023Z,1007.51
2022-10-05T13:52:21.514Z,1007.51
2022-10-05T13:53:19.531Z,1007.49
2022-10-05T13:54:21.548Z,1007.52
2022-10-05T13:55:21.560Z,1007.49
2022-10-05T13:56:21.542Z,1007.51
2022-10-05T13:57:21.518Z,1007.45
2022-10-05T13:58:21.517Z,1007.49
2022-10-05T13:59:21.531Z,1007.44
2022-10-05T14:00:26.349Z,1007.44
2022-10-05T14:01:21.546Z,1007.44
2022-10-05T14:02:19.667Z,1007.45
2022-10-05T14:03:21.579Z,1007.47
2022-10-05T14:04:19.625Z,1007.41
2022-10-05T14:05:21.558Z,1007.45
2022-10-05T14:06:21.528Z,1007.44
2022-10-05T14:07:21.529Z,1007.43
2022-10-05T14:08:21.526Z,1007.41
2022-10-05T14:09:21.531Z,1007.47
2022-10-05T14:10:21.552Z,1007.45
2022-10-05T14:11:21.548Z,1007.44
2022-10-05T14:12:21.544Z,1007.46
2022-10-05T14:13:21.562Z,1007.42
2022-10-05T14:14:21.539Z,1007.40
2022-10-05T14:15:21.540Z,1007.36
2022-10-05T14:16:21.664Z,1007.40
2022-10-05T14:17:21.542Z,1007.36
2022-10-05T14:18:21.543Z,1007.39
2022-10-05T14:19:19.749Z,1007.36
2022-10-05T14:20:21.545Z,1007.37
2022-10-05T14:21:21.594Z,1007.38
2022-10-05T14:22:21.562Z,1007.36
2022-10-05T14:23:22.607Z,1007.33
2022-10-05T14:24:42.431Z,1007.35
2022-10-05T14:25:21.555Z,1007.26
2022-10-05T14:26:21.577Z,1007.30
2022-10-05T14:27:21.601Z,1007.32
2022-10-05T14:28:21.604Z,1007.31
2022-10-05T14:29:21.557Z,1007.26
2022-10-05T14:30:21.581Z,1007.30
2022-10-05T14:31:21.627Z,1007.27
2022-10-05T14:32:19.849Z,1007.20
2022-10-05T14:33:21.562Z,1007.20
2022-10-05T14:34:21.562Z,1007.26
2022-10-05T14:35:21.076Z,1007.18
2022-10-05T14:36:25.624Z,1007.17
2022-10-05T14:37:21.575Z,1007.20
2022-10-05T14:38:21.571Z,1007.13
2022-10-05T14:39:21.571Z,1007.14
2022-10-05T14:40:21.581Z,1007.17
2022-10-05T14:41:21.573Z,1007.14
2022-10-05T14:42:21.572Z,1007.12
2022-10-05T14:43:21.572Z,1007.12
2022-10-05T14:44:21.620Z,1007.09
2022-10-05T14:45:21.579Z,1007.14
2022-10-05T14:46:25.077Z,1007.16
2022-10-05T14:47:21.592Z,1007.12
2022-10-05T14:48:20.967Z,1007.09
2022-10-05T14:49:21.600Z,1007.09
2022-10-05T14:50:20.977Z,1007.08
2022-10-05T14:51:20.988Z,1007.05
2022-10-05T14:52:21.632Z,1007.08
2022-10-05T14:53:21.000Z,1007.05
2022-10-05T14:54:20.002Z,1007.01
2022-10-05T14:55:21.589Z,1007.02
2022-10-05T14:56:21.009Z,1007.10
2022-10-05T14:57:21.607Z,1007.05
2022-10-05T14:58:21.593Z,1007.00
2022-10-05T14:59:20.036Z,1007.02
2022-10-05T15:00:21.701Z,1007.02
2022-10-05T15:01:20.193Z,1006.95
2022-10-05T15:02:20.159Z,1007.03
2022-10-05T15:03:20.078Z,1006.97
2022-10-05T15:04:20.054Z,1007.00
2022-10-05T15:05:21.627Z,1006.94
2022-10-05T15:06:20.069Z,1006.93
2022-10-05T15:07:20.070Z,1006.95
2022-10-05T15:08:20.076Z,1006.92
2022-10-05T15:09:21.122Z,1006.79
2022-10-05T15:10:21.122Z,1006.86
2022-10-05T15:11:21.089Z,1006.86
2022-10-05T15:12:20.098Z,1006.92
2022-10-05T15:13:20.091Z,1006.89
2022-10-05T15:14:20.093Z,1006.84
2022-10-05T15:15:21.625Z,1006.90
2022-10-05T15:16:20.720Z,1006.90
2022-10-05T15:17:20.119Z,1006.91
2022-10-05T15:18:21.103Z,1006.91
2022-10-05T15:19:21.632Z,1006.90
2022-10-05T15:20:20.128Z,1006.91
2022-10-05T15:21:21.635Z,1006.93
2022-10-05T15:22:21.631Z,1006.90
2022-10-05T15:23:21.130Z,1006.88
2022-10-05T15:24:21.636Z,1006.90
2022-10-05T15:25:21.134Z,1006.84
2022-10-05T15:26:21.641Z,1006.86
2022-10-05T15:27:20.134Z,1006.85
2022-10-05T15:28:20.173Z,1006.80
2022-10-05T15:29:20.136Z,1006.85
2022-10-05T15:30:20.140Z,1006.79
2022-10-05T15:31:21.698Z,1006.79
2022-10-05T15:32:21.677Z,1006.77
2022-10-05T15:33:22.130Z,1006.77
2022-10-05T15:34:22.133Z,1006.74
2022-10-05T15:35:22.135Z,1006.80
2022-10-05T15:36:21.647Z,1006.80
2022-10-05T15:37:21.160Z,1006.82
2022-10-05T15:38:21.230Z,1006.77
2022-10-05T15:39:21.156Z,1006.79
2022-10-05T15:40:22.138Z,1006.80
2022-10-05T15:41:21.664Z,1006.79
2022-10-05T15:42:21.660Z,1006.80
2022-10-05T15:43:22.139Z,1006.77
2022-10-05T15:44:22.143Z,1006.74
2022-10-05T15:45:22.167Z,1006.77
2022-10-05T15:46:22.206Z,1006.77
2022-10-05T15:47:21.664Z,1006.78
2022-10-05T15:48:22.468Z,1006.75
2022-10-05T15:49:21.152Z,1006.74
2022-10-05T15:50:22.151Z,1006.76
2022-10-05T15:51:21.177Z,1006.77
2022-10-05T15:52:21.671Z,1006.78
2022-10-05T15:53:21.664Z,1006.77
2022-10-05T15:54:22.151Z,1006.81
2022-10-05T15:55:22.172Z,1006.84
2022-10-05T15:56:20.160Z,1006.82
2022-10-05T15:57:20.166Z,1006.80
2022-10-05T15:58:21.657Z,1006.84
2022-10-05T15:59:20.170Z,1006.78
2022-10-05T16:00:20.167Z,1006.79
2022-10-05T16:01:20.264Z,1006.81
2022-10-05T16:12:31.394Z,1006.88
2022-10-05T16:13:29.768Z,1006.93
2022-10-05T16:14:29.769Z,1006.92
2022-10-05T16:15:29.764Z,1006.95
2022-10-05T16:16:31.570Z,1006.98
2022-10-05T16:17:29.760Z,1006.95
2022-10-05T16:18:30.761Z,1007.00
2022-10-05T16:19:30.768Z,1006.99
2022-10-05T16:20:29.755Z,1007.02
2022-10-05T16:21:31.386Z,1007.03
2022-10-05T16:22:29.749Z,1007.04
2022-10-05T16:23:29.749Z,1007.07
2022-10-05T16:24:31.397Z,1007.06
2022-10-05T16:25:31.378Z,1007.02
2022-10-05T16:26:30.748Z,1007.06
2022-10-05T16:27:31.372Z,1007.04
2022-10-05T16:28:30.831Z,1007.07
2022-10-05T16:29:31.381Z,1007.09